Time;durP1;ratioP1;P1;durP2;ratioP2;P2;SDS_P1;SDS_P2;PMS_P1;PMS_P2;Temp;Humidity;BMP_temperature;BMP_pressure;BME280_temperature;BME280_humidity;BME280_pressure;Samples;Min_cycle;Max_cycle;Signal;HPM_P1;HPM_P2
2023/03/16 00:01:50;;;;;;;22.70;13.00;;;;;;;-1.19;69.28;100718.52;107059;1259;1016230;-71
2023/03/16 00:06:43;;;;;;;20.30;11.00;;;;;;;-1.25;69.36;100722.04;106857;1257;1016106;-72
2023/03/16 00:11:36;;;;;;;19.30;11.10;;;;;;;-1.31;69.58;100724.55;107065;1256;1016359;-71
2023/03/16 00:16:28;;;;;;;28.80;13.20;;;;;;;-1.37;69.55;100733.52;106991;1256;1016432;-71
2023/03/16 00:21:21;;;;;;;24.10;13.10;;;;;;;-1.42;69.62;100736.58;107035;1256;1016455;-72
2023/03/16 00:26:14;;;;;;;20.30;11.60;;;;;;;-1.49;69.66;100737.50;106992;1256;1019360;-71
2023/03/16 00:31:10;;;;;;;27.20;13.40;;;;;;;-1.55;69.99;100732.85;106978;1256;1016340;-72
2023/03/16 00:36:08;;;;;;;18.90;12.10;;;;;;;-1.57;69.99;100737.85;106982;1259;1073165;-71
2023/03/16 00:41:03;;;;;;;29.30;12.80;;;;;;;-1.63;69.61;100743.55;107010;1257;1066306;-72
2023/03/16 00:46:05;;;;;;;18.60;10.70;;;;;;;-1.73;69.44;100742.68;106961;1256;1071571;-72
2023/03/16 00:50:58;;;;;;;23.00;11.00;;;;;;;-1.76;69.98;100743.85;106941;1258;1051224;-72
2023/03/16 00:55:52;;;;;;;20.00;10.70;;;;;;;-1.79;70.13;100748.60;107139;1256;1016273;-73
2023/03/16 01:00:46;;;;;;;23.30;11.50;;;;;;;-1.82;70.07;100756.92;107046;1256;1016870;-71
2023/03/16 01:05:42;;;;;;;22.00;12.30;;;;;;;-1.84;70.38;100755.75;107128;1256;1016378;-72
2023/03/16 01:10:36;;;;;;;21.70;10.70;;;;;;;-1.89;70.32;100759.66;106960;1256;1071312;-71
2023/03/16 01:15:31;;;;;;;19.90;11.30;;;;;;;-1.93;70.51;100758.76;107036;1256;1016307;-71
2023/03/16 01:20:25;;;;;;;21.30;10.80;;;;;;;-1.95;70.69;100763.52;107069;1259;1059566;-71
2023/03/16 01:25:20;;;;;;;17.10;9.90;;;;;;;-1.98;70.70;100765.48;107042;1259;1016174;-72
2023/03/16 01:30:13;;;;;;;19.80;11.50;;;;;;;-2.05;70.53;100774.90;106998;1256;1016218;-71
2023/03/16 01:35:08;;;;;;;19.90;12.40;;;;;;;-2.11;70.36;100779.55;107084;1256;1016392;-71
2023/03/16 01:40:01;;;;;;;18.70;10.50;;;;;;;-2.18;70.50;100775.00;107050;1257;1018912;-71
2023/03/16 01:45:00;;;;;;;13.90;9.90;;;;;;;-2.23;70.45;100774.64;107003;1259;1017222;-71
2023/03/16 01:50:00;;;;;;;17.70;10.90;;;;;;;-2.31;70.47;100783.83;106984;1259;1072715;-71
2023/03/16 01:55:00;;;;;;;24.10;12.20;;;;;;;-2.37;70.83;100783.23;106928;1256;1065893;-71
2023/03/16 02:00:17;;;;;;;22.30;10.60;;;;;;;-2.39;70.99;100787.33;106981;1257;1070621;-72
2023/03/16 02:05:41;;;;;;;24.20;12.40;;;;;;;-2.47;70.75;100790.52;106919;1256;1051446;-72
2023/03/16 02:10:37;;;;;;;20.00;10.40;;;;;;;-2.52;70.88;100790.48;107009;1259;1057896;-71
2023/03/16 02:15:30;;;;;;;18.30;11.50;;;;;;;-2.58;70.45;100795.67;107001;1256;1073174;-71
2023/03/16 02:20:47;;;;;;;17.40;10.60;;;;;;;-2.66;70.61;100797.80;107087;1256;1016164;-71
2023/03/16 02:26:04;;;;;;;17.50;11.40;;;;;;;-2.72;70.74;100801.45;106906;1257;1135985;-72
2023/03/16 02:30:58;;;;;;;13.00;7.40;;;;;;;-2.73;71.10;100805.48;106909;1259;1050543;-71
2023/03/16 02:35:51;;;;;;;23.50;12.10;;;;;;;-2.75;71.40;100809.39;107059;1256;1020568;-72
2023/03/16 02:40:56;;;;;;;19.20;11.70;;;;;;;-2.75;71.53;100812.84;106996;1257;1015964;-71
2023/03/16 02:45:53;;;;;;;19.80;11.30;;;;;;;-2.79;71.08;100816.58;106921;1257;1065577;-72
2023/03/16 02:50:51;;;;;;;20.40;12.40;;;;;;;-2.87;71.41;100819.42;107045;1258;1072028;-71
2023/03/16 02:55:45;;;;;;;21.40;13.40;;;;;;;-2.91;71.35;100821.01;106986;1259;1051283;-73
2023/03/16 03:00:38;;;;;;;18.00;10.80;;;;;;;-2.94;71.45;100826.52;107053;1257;1016097;-72
2023/03/16 03:05:31;;;;;;;20.30;10.20;;;;;;;-3.01;71.03;100832.41;106984;1259;1016058;-71
2023/03/16 03:10:24;;;;;;;20.50;11.10;;;;;;;-3.06;71.21;100842.08;106841;1256;1016486;-71
2023/03/16 03:15:20;;;;;;;20.00;11.30;;;;;;;-3.11;71.42;100842.93;106953;1256;1016197;-71
2023/03/16 03:20:23;;;;;;;16.40;9.50;;;;;;;-3.13;71.72;100850.57;106932;1259;1052078;-71
2023/03/16 03:25:19;;;;;;;23.40;12.50;;;;;;;-3.16;71.71;100851.06;107037;1259;1058840;-71
2023/03/16 03:30:17;;;;;;;24.60;12.00;;;;;;;-3.19;71.68;100851.35;107020;1256;1072613;-71
2023/03/16 03:35:12;;;;;;;21.00;11.00;;;;;;;-3.19;71.93;100850.80;107047;1257;1065858;-71
2023/03/16 03:40:07;;;;;;;16.90;10.50;;;;;;;-3.25;71.44;100858.89;107016;1257;1070967;-72
2023/03/16 03:45:00;;;;;;;18.40;10.20;;;;;;;-3.35;71.20;100872.16;107101;1259;1051557;-71
2023/03/16 03:49:53;;;;;;;28.10;14.00;;;;;;;-3.40;71.83;100877.75;107022;1257;1016455;-71
2023/03/16 03:54:47;;;;;;;20.50;11.40;;;;;;;-3.41;71.60;100882.77;106933;1259;1016625;-71
2023/03/16 03:59:42;;;;;;;21.70;11.20;;;;;;;-3.45;71.55;100888.73;107034;1259;1066234;-71
2023/03/16 04:04:54;;;;;;;17.30;11.60;;;;;;;-3.52;71.27;100887.88;106956;1258;1070940;-71
2023/03/16 04:09:47;;;;;;;27.90;14.50;;;;;;;-3.55;71.88;100894.45;106941;1258;1016661;-71
2023/03/16 04:14:58;;;;;;;24.50;13.20;;;;;;;-3.56;71.91;100893.38;107046;1257;1058798;-71
2023/03/16 04:19:54;;;;;;;26.80;13.20;;;;;;;-3.56;71.79;100902.65;106978;1256;1072576;-71
2023/03/16 04:24:47;;;;;;;31.20;14.90;;;;;;;-3.59;71.66;100903.95;106903;1257;1016034;-71
2023/03/16 04:29:40;;;;;;;23.00;13.60;;;;;;;-3.58;72.03;100900.62;107031;1257;1016326;-70
2023/03/16 04:34:33;;;;;;;26.00;13.90;;;;;;;-3.60;71.86;100910.32;106909;1259;1016534;-71
2023/03/16 04:39:28;;;;;;;25.30;14.00;;;;;;;-3.62;71.97;100918.08;107046;1256;1058493;-72
2023/03/16 04:44:21;;;;;;;27.40;15.80;;;;;;;-3.63;72.16;100922.80;106945;1256;1016543;-71
2023/03/16 04:49:15;;;;;;;26.60;15.80;;;;;;;-3.63;72.29;100924.80;107081;1258;1016838;-71
2023/03/16 04:54:10;;;;;;;22.40;14.60;;;;;;;-3.65;72.24;100928.86;107001;1257;1070469;-71
2023/03/16 04:59:05;;;;;;;27.40;13.90;;;;;;;-3.66;72.26;100937.98;107053;1260;1050676;-71
2023/03/16 05:04:07;;;;;;;25.80;13.40;;;;;;;-3.65;72.04;100943.94;106854;1257;1058625;-72
2023/03/16 05:09:32;;;;;;;25.30;13.50;;;;;;;-3.66;72.04;100944.26;107044;1257;1073065;-73
2023/03/16 05:14:52;;;;;;;22.70;12.90;;;;;;;-3.60;72.24;100947.70;106997;1256;1065300;-72
2023/03/16 05:26:37;;;;;;;20.80;11.30;;;;;;;-3.55;71.99;100947.63;106981;1257;1053809;-72
2023/03/16 05:31:45;;;;;;;23.00;13.00;;;;;;;-3.55;71.76;100955.61;107000;1257;1058595;-73
2023/03/16 05:36:48;;;;;;;20.50;11.40;;;;;;;-3.53;71.73;100956.23;107055;1258;1074045;-72
2023/03/16 05:41:42;;;;;;;22.00;12.50;;;;;;;-3.50;71.96;100955.50;107165;1257;1016524;-72
2023/03/16 05:52:16;;;;;;;23.30;14.50;;;;;;;-3.37;72.37;100964.89;106867;1257;1051616;-72
2023/03/16 05:57:09;;;;;;;22.40;13.00;;;;;;;-3.27;72.51;100966.73;106913;1258;1016484;-72
2023/03/16 06:02:03;;;;;;;28.10;13.60;;;;;;;-3.15;72.76;100977.62;106879;1260;1016533;-72
2023/03/16 06:06:57;;;;;;;22.00;12.90;;;;;;;-3.04;72.66;100973.35;107068;1256;1016178;-72
2023/03/16 06:11:51;;;;;;;34.80;16.30;;;;;;;-2.93;72.49;100973.62;106836;1257;1074755;-70
2023/03/16 06:16:44;;;;;;;33.00;17.20;;;;;;;-2.85;72.96;100975.11;106966;1260;1016418;-70
2023/03/16 06:21:38;;;;;;;27.20;14.70;;;;;;;-2.74;72.78;100979.52;107177;1260;1016421;-71
2023/03/16 06:26:38;;;;;;;25.60;14.30;;;;;;;-2.62;72.99;100984.10;107039;1257;1073325;-71
2023/03/16 06:31:33;;;;;;;24.90;14.20;;;;;;;-2.49;73.20;100987.06;106985;1257;1065784;-70
2023/03/16 06:36:27;;;;;;;31.30;15.60;;;;;;;-2.34;73.19;100990.61;107049;1260;1016459;-70
2023/03/16 06:41:22;;;;;;;31.10;16.50;;;;;;;-2.15;73.62;100990.42;107013;1258;1050566;-70
2023/03/16 06:46:15;;;;;;;19.20;12.30;;;;;;;-1.88;73.86;100994.23;107020;1260;1016423;-70
2023/03/16 06:51:09;;;;;;;28.30;15.40;;;;;;;-1.58;74.22;100994.11;107033;1257;1016278;-71
2023/03/16 06:56:02;;;;;;;27.30;14.60;;;;;;;-1.28;74.43;101001.13;106980;1257;1016388;-71
2023/03/16 07:01:02;;;;;;;22.10;13.60;;;;;;;-1.02;74.52;100994.87;106959;1258;1073432;-70
2023/03/16 07:05:55;;;;;;;22.60;12.60;;;;;;;-0.62;74.58;101000.77;106914;1257;1051909;-71
2023/03/16 07:10:48;;;;;;;20.70;12.90;;;;;;;-0.27;74.29;101000.71;106941;1257;1016227;-71
2023/03/16 07:15:41;;;;;;;20.00;10.10;;;;;;;-0.04;73.91;100999.83;106875;1256;1016336;-71
2023/03/16 07:20:34;;;;;;;20.50;11.90;;;;;;;0.11;73.99;101003.98;106985;1257;1018243;-71
2023/03/16 07:25:30;;;;;;;21.60;11.30;;;;;;;0.26;73.87;101007.80;106971;1257;1073195;-71
2023/03/16 07:30:24;;;;;;;21.80;10.50;;;;;;;0.43;73.82;101010.54;107095;1256;1050839;-71
2023/03/16 07:35:17;;;;;;;19.40;11.70;;;;;;;0.70;73.60;101016.15;106958;1256;1016456;-71
2023/03/16 07:40:12;;;;;;;13.60;10.00;;;;;;;1.10;73.45;101010.01;106972;1256;1016208;-71
2023/03/16 07:45:07;;;;;;;18.80;10.70;;;;;;;1.69;72.61;101008.55;107031;1256;1065686;-72
2023/03/16 07:50:07;;;;;;;21.00;9.40;;;;;;;2.23;71.90;101013.93;106959;1257;1016656;-73
2023/03/16 07:55:04;;;;;;;12.80;8.00;;;;;;;5.00;69.02;101000.51;106931;1257;1051156;-73
2023/03/16 07:59:58;;;;;;;12.90;7.40;;;;;;;9.56;63.21;100984.20;106961;1256;1058304;-73
2023/03/16 08:04:54;;;;;;;13.80;10.30;;;;;;;11.42;60.64;100983.09;107088;1257;1017452;-73
2023/03/16 08:09:52;;;;;;;11.90;8.80;;;;;;;13.47;57.15;100977.73;106951;1257;1068138;-74
2023/03/16 08:14:49;;;;;;;9.90;7.30;;;;;;;12.67;56.41;100984.67;106969;1257;1069596;-73
2023/03/16 08:19:52;;;;;;;11.90;8.00;;;;;;;13.57;53.64;100987.26;107062;1257;1051097;-73
2023/03/16 08:24:49;;;;;;;12.40;8.50;;;;;;;14.75;52.10;100990.44;107136;1256;1057996;-73
2023/03/16 08:29:42;;;;;;;16.50;10.50;;;;;;;14.90;51.73;100997.33;106995;1257;1016397;-72
2023/03/16 08:34:38;;;;;;;11.30;8.20;;;;;;;15.28;50.38;100995.20;106995;1256;1064728;-72
2023/03/16 08:39:34;;;;;;;11.50;7.80;;;;;;;14.66;50.38;101000.70;107032;1256;1016601;-72
2023/03/16 08:44:31;;;;;;;13.20;9.20;;;;;;;13.09;50.88;101003.60;107066;1260;1050942;-71
2023/03/16 08:49:26;;;;;;;10.60;8.20;;;;;;;11.57;52.15;101011.66;107001;1256;1057705;-72
2023/03/16 08:54:26;;;;;;;16.70;10.40;;;;;;;9.92;53.20;101023.06;107011;1256;1073408;-72
2023/03/16 08:59:19;;;;;;;14.10;10.20;;;;;;;9.05;53.82;101021.52;107043;1256;1015865;-72
2023/03/16 09:04:22;;;;;;;18.30;9.50;;;;;;;8.79;54.85;101032.02;107053;1256;1070209;-72
2023/03/16 09:09:16;;;;;;;13.90;8.60;;;;;;;9.73;54.19;101025.40;107032;1257;1016624;-71
2023/03/16 09:14:10;;;;;;;14.40;8.60;;;;;;;9.92;53.44;101029.16;107032;1256;1016416;-71
2023/03/16 09:19:04;;;;;;;12.60;8.90;;;;;;;9.40;53.72;101032.70;107043;1257;1017204;-72
2023/03/16 09:23:57;;;;;;;11.10;8.50;;;;;;;10.04;53.38;101032.39;107084;1256;1015969;-71
2023/03/16 09:28:50;;;;;;;15.10;8.80;;;;;;;10.79;52.19;101028.91;107029;1256;1016480;-72
2023/03/16 09:33:43;;;;;;;10.40;8.40;;;;;;;10.83;52.40;101031.94;106962;1256;1016360;-72
2023/03/16 09:38:37;;;;;;;11.20;7.70;;;;;;;11.15;51.79;101035.55;107035;1256;1017340;-72
2023/03/16 09:43:57;;;;;;;11.80;7.10;;;;;;;12.23;49.64;101033.79;107070;1256;1016811;-72
2023/03/16 09:48:51;;;;;;;7.90;6.50;;;;;;;12.30;49.60;101026.77;107085;1256;1065294;-73
2023/03/16 09:53:47;;;;;;;10.30;6.70;;;;;;;14.11;47.20;101023.63;107098;1256;1016232;-72
2023/03/16 09:58:40;;;;;;;10.50;6.10;;;;;;;17.39;44.56;101018.12;107020;1257;1053284;-73
2023/03/16 10:04:08;;;;;;;8.20;6.30;;;;;;;19.82;41.70;101022.08;107074;1256;1016151;-73
2023/03/16 10:09:28;;;;;;;7.60;4.60;;;;;;;18.22;42.64;101024.60;107052;1256;1075206;-72
2023/03/16 10:14:33;;;;;;;6.00;4.60;;;;;;;17.70;41.93;101034.30;107052;1256;1065332;-72
2023/03/16 10:19:39;;;;;;;5.40;4.20;;;;;;;19.54;39.39;101024.78;107132;1256;1073036;-72
2023/03/16 10:24:52;;;;;;;5.90;4.20;;;;;;;18.94;39.57;101029.78;107163;1259;1050960;-73
2023/03/16 10:29:46;;;;;;;6.00;4.30;;;;;;;21.01;36.13;101026.39;107045;1256;1059821;-73
2023/03/16 10:34:39;;;;;;;5.30;4.30;;;;;;;22.45;35.98;101022.75;107075;1256;1016511;-73
2023/03/16 10:39:41;;;;;;;4.30;3.10;;;;;;;23.42;35.06;101023.33;107032;1256;1016244;-73
2023/03/16 10:44:39;;;;;;;3.70;2.50;;;;;;;22.49;34.04;101021.95;107153;1256;1074590;-73
2023/03/16 10:49:38;;;;;;;5.30;2.40;;;;;;;22.36;32.54;101024.08;107046;1256;1053372;-73
2023/03/16 10:54:34;;;;;;;4.90;3.50;;;;;;;23.33;32.44;101016.35;107034;1256;1061361;-73
2023/03/16 10:59:33;;;;;;;4.50;2.70;;;;;;;24.00;30.93;101015.61;107064;1256;1072809;-73
2023/03/16 11:04:31;;;;;;;3.70;3.10;;;;;;;24.59;31.37;101016.71;107021;1256;1066083;-73
2023/03/16 11:09:34;;;;;;;3.90;3.00;;;;;;;24.69;30.28;101023.09;106942;1256;1070444;-73
2023/03/16 11:14:28;;;;;;;4.10;2.70;;;;;;;24.50;29.91;101025.57;107059;1256;1051578;-73
2023/03/16 11:19:28;;;;;;;7.60;2.80;;;;;;;24.22;29.82;101019.30;107049;1259;1016240;-73
2023/03/16 11:24:41;;;;;;;4.10;2.70;;;;;;;24.06;29.78;101012.75;107010;1256;1073859;-73
2023/03/16 11:29:35;;;;;;;3.50;2.80;;;;;;;24.18;29.97;101011.46;107100;1256;1065557;-73
2023/03/16 11:34:30;;;;;;;3.60;3.30;;;;;;;24.29;29.77;101017.44;107020;1257;1016350;-73
2023/03/16 11:39:59;;;;;;;7.50;4.20;;;;;;;23.89;29.28;101008.54;107065;1255;1051984;-73
2023/03/16 11:45:16;;;;;;;5.30;3.60;;;;;;;23.30;29.28;101011.13;106542;1262;1058685;-74
2023/03/16 11:50:14;;;;;;;;;;;;;;;23.12;29.78;101005.34;106512;1263;1072950;-72
2023/03/16 11:55:35;;;;;;;4.20;3.80;;;;;;;22.81;29.79;101005.68;106531;1264;1066227;-73
2023/03/16 12:00:47;;;;;;;5.00;3.50;;;;;;;21.54;29.45;101002.80;106518;1262;1071259;-73
2023/03/16 12:06:03;;;;;;;5.20;3.60;;;;;;;20.04;30.19;101008.14;106524;1265;1051415;-73
2023/03/16 12:11:29;;;;;;;6.50;4.20;;;;;;;17.61;31.89;101017.15;106590;1263;1064442;-72
2023/03/16 12:16:28;;;;;;;7.40;3.40;;;;;;;15.23;33.36;101025.17;106550;1262;1072600;-73
2023/03/16 12:21:42;;;;;;;6.30;4.20;;;;;;;13.19;34.81;101040.08;106965;1256;1068296;-72
2023/03/16 12:26:40;;;;;;;9.90;4.50;;;;;;;11.66;36.84;101050.71;107010;1256;1073538;-72
2023/03/16 12:31:44;;;;;;;9.10;4.70;;;;;;;10.66;38.45;101054.98;107087;1257;1051251;-72
2023/03/16 12:36:57;;;;;;;7.60;3.90;;;;;;;10.13;40.01;101060.84;107074;1256;1058113;-72
2023/03/16 12:41:59;;;;;;;5.90;3.30;;;;;;;9.84;41.02;101063.95;107101;1257;1074109;-72
2023/03/16 12:46:59;;;;;;;8.60;3.30;;;;;;;9.54;41.51;101062.45;107080;1257;1065670;-72
2023/03/16 12:52:03;;;;;;;10.70;4.40;;;;;;;9.19;42.41;101065.83;107002;1256;1070874;-72
2023/03/16 12:57:08;;;;;;;11.30;4.20;;;;;;;8.79;43.18;101076.27;107074;1255;1050509;-72
2023/03/16 13:02:05;;;;;;;10.60;4.00;;;;;;;8.55;43.76;101081.08;107091;1257;1058729;-72
2023/03/16 13:07:06;;;;;;;9.00;3.60;;;;;;;8.42;44.18;101080.63;107084;1256;1072306;-72
2023/03/16 13:12:03;;;;;;;6.40;3.20;;;;;;;8.35;44.41;101082.33;107108;1256;1066710;-71
2023/03/16 13:17:23;;;;;;;8.00;3.80;;;;;;;8.40;44.91;101080.58;107103;1256;1071586;-72
2023/03/16 13:22:22;;;;;;;6.80;4.10;;;;;;;8.53;45.22;101082.73;107164;1255;1053209;-72
2023/03/16 13:27:28;;;;;;;8.90;3.40;;;;;;;8.65;45.23;101087.61;107245;1255;1058347;-72
2023/03/16 13:32:22;;;;;;;8.80;3.50;;;;;;;8.72;44.97;101090.06;107079;1256;1075575;-72
2023/03/16 13:37:18;;;;;;;10.60;5.20;;;;;;;8.80;44.95;101090.30;107115;1256;1016275;-72
2023/03/16 13:42:21;;;;;;;7.40;3.90;;;;;;;8.66;44.85;101090.75;107018;1256;1070976;-72
2023/03/16 13:47:15;;;;;;;9.60;3.30;;;;;;;8.39;44.83;101090.91;107026;1256;1052198;-72
2023/03/16 13:52:19;;;;;;;5.60;2.80;;;;;;;8.17;45.13;101096.06;107042;1256;1058864;-72
2023/03/16 13:57:13;;;;;;;5.40;2.90;;;;;;;8.01;45.28;101100.02;107065;1256;1075273;-72
2023/03/16 14:02:21;;;;;;;8.40;3.20;;;;;;;8.01;45.59;101101.94;107116;1256;1017977;-72
2023/03/16 14:07:17;;;;;;;5.70;3.90;;;;;;;8.25;45.55;101097.19;107002;1256;1070457;-72
2023/03/16 14:12:15;;;;;;;7.20;3.20;;;;;;;8.40;45.07;101094.56;107065;1259;1050985;-72
2023/03/16 14:17:18;;;;;;;8.60;3.50;;;;;;;8.61;44.90;101095.25;107028;1256;1058242;-71
2023/03/16 14:22:15;;;;;;;7.60;2.50;;;;;;;8.70;44.60;101095.86;107012;1256;1148388;-72
2023/03/16 14:27:40;;;;;;;4.80;2.80;;;;;;;8.57;44.27;101091.69;107031;1256;1065191;-72
2023/03/16 14:32:33;;;;;;;6.10;3.20;;;;;;;8.40;43.88;101095.45;107075;1256;1070863;-72
2023/03/16 14:37:34;;;;;;;6.80;3.00;;;;;;;8.11;44.04;101098.45;107060;1259;1016385;-72
2023/03/16 14:42:30;;;;;;;9.10;3.80;;;;;;;7.93;44.40;101101.82;107047;1256;1059204;-72
2023/03/16 14:47:28;;;;;;;6.80;3.10;;;;;;;7.84;44.63;101101.35;107091;1256;1073057;-72
2023/03/16 14:52:26;;;;;;;6.80;3.60;;;;;;;7.69;44.79;101103.08;107119;1256;1065488;-72
2023/03/16 14:57:19;;;;;;;8.90;3.10;;;;;;;7.55;44.84;101108.83;107160;1256;1070704;-72
2023/03/16 15:02:29;;;;;;;6.30;2.90;;;;;;;7.44;45.20;101110.51;107055;1256;1016472;-72
2023/03/16 15:07:28;;;;;;;7.50;2.90;;;;;;;7.31;45.29;101115.68;107090;1256;1058611;-72
2023/03/16 15:12:24;;;;;;;9.40;3.40;;;;;;;7.20;45.34;101117.21;97264;1256;2003908;-72
2023/03/16 15:17:18;;;;;;;5.20;2.90;;;;;;;7.14;45.83;101118.70;79406;1259;2015987;-72
2023/03/16 15:22:12;;;;;;;6.50;2.70;;;;;;;7.05;45.91;101126.97;79382;1259;2058504;-72
2023/03/16 15:27:18;;;;;;;8.60;3.40;;;;;;;6.89;46.24;101129.13;76988;1256;2066599;-72
2023/03/16 15:32:14;;;;;;;9.10;3.40;;;;;;;6.82;46.65;101127.48;82166;1256;2015616;-73
2023/03/16 15:37:28;;;;;;;7.80;3.00;;;;;;;6.83;46.79;101126.16;79961;1255;2070615;-72
2023/03/16 15:42:24;;;;;;;9.10;3.90;;;;;;;6.87;46.98;101127.02;77605;1256;2065010;-72
2023/03/16 15:47:17;;;;;;;10.00;3.70;;;;;;;6.83;46.97;101132.55;79039;1256;2058834;-72
2023/03/16 15:52:26;;;;;;;12.60;4.70;;;;;;;6.70;47.51;101130.80;79876;1256;2016358;-74
2023/03/16 15:57:19;;;;;;;6.70;3.90;;;;;;;6.54;47.99;101135.20;79996;1259;2016093;-73
2023/03/16 16:02:31;;;;;;;8.20;3.70;;;;;;;6.42;48.39;101140.38;77873;1257;2057919;-73
2023/03/16 16:07:24;;;;;;;7.50;3.20;;;;;;;6.37;48.81;101142.09;78417;1256;2063898;-72
2023/03/16 16:12:25;;;;;;;10.30;3.70;;;;;;;6.33;48.66;101148.61;80788;1257;2075694;-72
2023/03/16 16:17:24;;;;;;;5.90;3.40;;;;;;;6.22;48.89;101151.61;79290;1256;2070417;-72
2023/03/16 16:22:37;;;;;;;9.00;2.80;;;;;;;6.07;48.94;101161.31;85920;1256;2072455;-72
2023/03/16 16:27:30;;;;;;;7.90;3.30;;;;;;;5.89;48.91;101162.43;107076;1256;1057937;-72
2023/03/16 16:32:24;;;;;;;9.40;4.00;;;;;;;5.72;49.29;101165.09;107103;1256;1018105;-72
2023/03/16 16:37:17;;;;;;;7.90;3.40;;;;;;;5.52;49.50;101176.44;107121;1256;1016471;-72
2023/03/16 16:42:16;;;;;;;3.50;2.50;;;;;;;5.32;49.64;101182.44;107142;1255;1016474;-72
2023/03/16 16:47:21;;;;;;;4.80;2.40;;;;;;;5.10;49.96;101183.98;107058;1256;1073022;-72
2023/03/16 16:52:17;;;;;;;6.70;2.80;;;;;;;4.87;50.32;101187.22;106910;1256;1052195;-73
2023/03/16 16:57:19;;;;;;;5.40;2.80;;;;;;;4.65;50.72;101192.67;107041;1256;1058976;-73
2023/03/16 17:02:35;;;;;;;6.00;2.60;;;;;;;4.40;51.11;101204.31;107020;1256;1072793;-74
2023/03/16 17:07:31;;;;;;;23.30;9.70;;;;;;;4.15;51.58;101210.14;107049;1256;1064839;-72
2023/03/16 17:12:24;;;;;;;14.50;6.50;;;;;;;3.92;52.04;101214.94;107040;1256;1016316;-72
2023/03/16 17:17:19;;;;;;;5.60;3.80;;;;;;;3.69;52.73;101216.69;107010;1259;1017825;-73
2023/03/16 17:22:27;;;;;;;7.30;3.10;;;;;;;3.47;53.10;101220.16;107112;1256;1016437;-71
2023/03/16 17:27:31;;;;;;;22.50;4.90;;;;;;;3.26;53.45;101223.64;106989;1256;1073644;-72
2023/03/16 17:32:25;;;;;;;9.00;4.20;;;;;;;3.09;53.92;101224.04;107101;1256;1065547;-72
2023/03/16 17:37:20;;;;;;;14.00;5.80;;;;;;;2.92;54.27;101226.75;107083;1256;1018056;-71
2023/03/16 17:42:17;;;;;;;13.30;6.10;;;;;;;2.74;54.46;101232.92;106992;1257;1052046;-72
2023/03/16 17:47:14;;;;;;;14.90;5.30;;;;;;;2.59;54.70;101239.44;107102;1256;1059035;-72
2023/03/16 17:52:20;;;;;;;9.80;5.00;;;;;;;2.42;55.21;101245.11;107087;1256;1073869;-72
2023/03/16 17:57:17;;;;;;;11.10;4.10;;;;;;;2.19;55.46;101262.61;106938;1257;1065632;-72
2023/03/16 18:02:45;;;;;;;12.30;5.80;;;;;;;2.01;56.02;101266.45;106992;1256;1070652;-72
2023/03/16 18:07:38;;;;;;;15.60;6.00;;;;;;;1.93;56.44;101269.06;106980;1256;1050962;-72
2023/03/16 18:12:31;;;;;;;17.60;6.80;;;;;;;1.86;56.71;101271.91;107060;1256;1016480;-71
2023/03/16 18:17:28;;;;;;;16.00;5.50;;;;;;;1.75;57.35;101274.97;107054;1256;1016451;-72
2023/03/16 18:22:23;;;;;;;15.10;7.40;;;;;;;1.62;57.33;101276.21;107086;1257;1065890;-71
2023/03/16 18:27:16;;;;;;;12.90;6.30;;;;;;;1.45;57.30;101285.65;106966;1256;1070892;-72
2023/03/16 18:32:26;;;;;;;10.70;5.50;;;;;;;1.31;57.69;101287.80;107061;1256;1016404;-72
2023/03/16 18:37:24;;;;;;;13.50;7.10;;;;;;;1.18;58.30;101293.96;106941;1257;1058094;-72
2023/03/16 18:42:24;;;;;;;12.70;5.80;;;;;;;1.03;58.19;101302.56;107014;1257;1072411;-72
2023/03/16 18:47:21;;;;;;;10.10;5.50;;;;;;;0.90;58.54;101307.54;107032;1256;1064820;-71
2023/03/16 18:52:19;;;;;;;14.30;6.00;;;;;;;0.75;59.00;101312.89;106935;1256;1070825;-72
2023/03/16 18:57:26;;;;;;;14.50;7.80;;;;;;;0.65;59.34;101309.69;106988;1257;1051622;-72
2023/03/16 19:02:36;;;;;;;15.30;10.00;;;;;;;0.54;59.53;101315.73;107004;1260;1061259;-72
2023/03/16 19:07:34;;;;;;;17.90;12.00;;;;;;;0.43;59.88;101324.39;107018;1260;1072530;-71
2023/03/16 19:12:27;;;;;;;23.70;12.20;;;;;;;0.37;60.12;101327.63;106978;1256;1066797;-72
2023/03/16 19:17:20;;;;;;;17.30;11.70;;;;;;;0.33;60.40;101331.09;107019;1256;1016166;-72
2023/03/16 19:22:21;;;;;;;20.90;11.10;;;;;;;0.30;60.69;101329.55;107057;1259;1016492;-72
2023/03/16 19:27:22;;;;;;;18.50;11.40;;;;;;;0.29;60.73;101331.10;106956;1260;1058484;-72
2023/03/16 19:32:17;;;;;;;17.20;12.50;;;;;;;0.22;60.86;101336.83;106943;1256;1072536;-72
2023/03/16 19:37:14;;;;;;;20.80;13.00;;;;;;;0.14;61.09;101339.98;107030;1256;1064913;-72
2023/03/16 19:42:21;;;;;;;15.50;11.70;;;;;;;0.05;61.31;101350.13;106938;1256;1070943;-72
2023/03/16 19:47:36;;;;;;;22.80;15.30;;;;;;;-0.14;61.27;101354.59;106992;1256;1051919;-73
2023/03/16 19:52:31;;;;;;;15.90;9.40;;;;;;;-0.24;61.66;101354.89;107046;1257;1061544;-72
2023/03/16 19:57:24;;;;;;;13.00;9.50;;;;;;;-0.22;61.96;101363.23;106945;1256;1071907;-72
2023/03/16 20:02:29;;;;;;;17.00;9.90;;;;;;;-0.15;61.90;101366.95;106847;1256;1016740;-73
2023/03/16 20:07:22;;;;;;;18.90;11.30;;;;;;;-0.03;62.13;101368.84;106942;1256;1070698;-72
2023/03/16 20:12:24;;;;;;;14.80;9.10;;;;;;;0.07;62.15;101373.13;106953;1256;1016464;-72
2023/03/16 20:17:22;;;;;;;17.70;10.00;;;;;;;0.10;62.08;101378.08;106880;1256;1058690;-72
2023/03/16 20:22:20;;;;;;;12.10;9.70;;;;;;;0.15;62.26;101374.88;106895;1256;1075126;-72
2023/03/16 20:27:14;;;;;;;14.40;9.20;;;;;;;0.25;62.35;101373.47;106745;1257;1065289;-73
2023/03/16 20:32:18;;;;;;;14.10;10.00;;;;;;;0.32;62.51;101370.77;106699;1256;1018143;-72
2023/03/16 20:37:23;;;;;;;21.60;11.00;;;;;;;0.41;62.77;101374.24;106826;1256;1051050;-72
2023/03/16 20:42:19;;;;;;;31.50;17.90;;;;;;;0.52;62.82;101372.77;107008;1257;1060150;-72
2023/03/16 20:47:16;;;;;;;24.70;14.90;;;;;;;0.60;62.82;101370.09;106802;1257;1074443;-72
2023/03/16 20:52:21;;;;;;;27.40;14.90;;;;;;;0.66;62.56;101372.69;106876;1262;1067535;-73
2023/03/16 20:57:21;;;;;;;31.70;18.30;;;;;;;0.68;62.84;101370.61;106818;1257;1071154;-72
2023/03/16 21:02:30;;;;;;;38.30;18.80;;;;;;;0.66;62.69;101377.29;106695;1259;1051158;-72
2023/03/16 21:07:23;;;;;;;24.70;16.20;;;;;;;0.66;62.95;101378.98;106728;1259;1060494;-72
2023/03/16 21:12:32;;;;;;;33.30;21.10;;;;;;;0.66;62.88;101383.81;106817;1258;1016294;-72
2023/03/16 21:17:34;;;;;;;34.90;20.20;;;;;;;0.62;62.86;101381.13;106713;1258;1067581;-72
2023/03/16 21:22:33;;;;;;;33.50;20.40;;;;;;;0.53;63.12;101382.25;106798;1259;1073256;-72
2023/03/16 21:27:30;;;;;;;38.70;21.00;;;;;;;0.41;63.00;101382.95;106762;1260;1053207;-74
2023/03/16 21:32:29;;;;;;;38.10;20.40;;;;;;;0.29;63.25;101389.08;106790;1258;1058433;-72
2023/03/16 21:37:23;;;;;;;38.00;20.40;;;;;;;0.16;63.36;101389.77;106691;1262;1072640;-72
2023/03/16 21:42:17;;;;;;;37.90;20.90;;;;;;;0.07;63.69;101385.84;108266;1257;1015684;-73
2023/03/16 21:47:28;;;;;;;38.60;21.40;;;;;;;-0.04;63.85;101379.34;106783;1261;1016238;-72
2023/03/16 21:52:23;;;;;;;42.00;23.50;;;;;;;-0.14;64.09;101381.88;106748;1259;1050726;-72
2023/03/16 21:57:16;;;;;;;38.10;22.60;;;;;;;-0.22;64.12;101380.46;106857;1257;1059038;-73
2023/03/16 22:02:27;;;;;;;40.30;23.90;;;;;;;-0.27;64.57;101383.35;107075;1256;1016256;-72
2023/03/16 22:07:21;;;;;;;38.40;23.50;;;;;;;-0.28;64.66;101387.31;107109;1257;1065417;-72
2023/03/16 22:12:14;;;;;;;49.40;24.70;;;;;;;-0.27;64.95;101383.02;107056;1257;1018400;-72
2023/03/16 22:17:19;;;;;;;42.10;24.70;;;;;;;-0.22;65.12;101375.48;107058;1256;1018974;-72
2023/03/16 22:22:16;;;;;;;51.60;28.00;;;;;;;-0.15;65.06;101381.82;107108;1257;1060615;-72
2023/03/16 22:27:21;;;;;;;48.90;27.10;;;;;;;-0.04;65.32;101385.64;107067;1256;1072299;-72